createdAt,value
2022-09-11T00:01:27.279Z,20.09
2022-09-11T00:03:57.325Z,20.18
2022-09-11T00:06:29.841Z,19.97
2022-09-11T00:09:03.461Z,19.99
2022-09-11T00:11:40.951Z,20.09
2022-09-11T00:14:10.178Z,20.10
2022-09-11T00:16:39.738Z,20.11
2022-09-11T00:19:10.240Z,20.18
2022-09-11T00:21:36.699Z,20.13
2022-09-11T00:24:03.914Z,20.16
2022-09-11T00:26:30.310Z,20.12
2022-09-11T00:28:57.256Z,20.09
2022-09-11T00:31:27.826Z,20.17
2022-09-11T00:33:55.073Z,20.20
2022-09-11T00:36:24.424Z,20.15
2022-09-11T00:38:51.397Z,20.17
2022-09-11T00:41:21.738Z,20.06
2022-09-11T00:43:59.912Z,19.98
2022-09-11T00:46:41.959Z,20.07
2022-09-11T00:49:30.505Z,19.75
2022-09-11T00:52:02.514Z,20.06
2022-09-11T00:54:33.431Z,19.94
2022-09-11T00:57:03.100Z,20.08
2022-09-11T00:59:32.168Z,19.97
2022-09-11T01:01:58.818Z,20.05
2022-09-11T01:04:25.687Z,19.90
2022-09-11T01:06:56.471Z,20.03
2022-09-11T01:09:25.825Z,20.06
2022-09-11T01:12:12.554Z,19.97
2022-09-11T01:14:53.005Z,20.02
2022-09-11T01:17:34.356Z,19.91
2022-09-11T01:20:12.970Z,19.87
2022-09-11T01:22:57.616Z,19.92
2022-09-11T01:25:54.687Z,19.91
2022-09-11T01:28:28.722Z,19.80
2022-09-11T01:31:02.455Z,19.70
2022-09-11T01:33:46.470Z,19.73
2022-09-11T01:36:25.631Z,19.72
2022-09-11T01:39:02.218Z,19.73
2022-09-11T01:41:34.670Z,19.65
2022-09-11T01:44:18.595Z,19.64
2022-09-11T01:46:49.812Z,18.89
2022-09-11T01:49:42.416Z,19.49
2022-09-11T01:52:12.877Z,18.82
2022-09-11T01:54:44.329Z,18.72
2022-09-11T01:57:29.502Z,19.15
2022-09-11T02:00:01.010Z,19.11
2022-09-11T02:02:38.379Z,19.01
2022-09-11T02:05:15.557Z,19.11
2022-09-11T02:07:58.128Z,19.16
2022-09-11T02:10:51.922Z,19.15
2022-09-11T02:13:27.834Z,19.10
2022-09-11T02:15:58.286Z,18.41
2022-09-11T02:18:47.446Z,18.79
2022-09-11T02:21:13.880Z,18.54
2022-09-11T02:23:40.553Z,18.87
2022-09-11T02:26:10.554Z,19.05
2022-09-11T02:28:37.344Z,19.02
2022-09-11T02:31:04.127Z,18.21
2022-09-11T02:33:37.688Z,18.29
2022-09-11T02:36:44.893Z,18.76
2022-09-11T02:39:29.589Z,18.54
2022-09-11T02:42:18.934Z,17.83
2022-09-11T02:44:57.415Z,18.49
2022-09-11T02:47:57.513Z,18.77
2022-09-11T02:50:54.824Z,18.62
2022-09-11T02:53:33.100Z,19.04
2022-09-11T02:56:14.665Z,18.92
2022-09-11T02:58:47.986Z,17.88
2022-09-11T03:01:14.524Z,18.71
2022-09-11T03:03:45.779Z,19.02
2022-09-11T03:06:17.028Z,19.10
2022-09-11T03:08:43.473Z,18.82
2022-09-11T03:11:10.698Z,19.22
2022-09-11T03:13:38.182Z,19.22
2022-09-11T03:16:05.166Z,18.52
2022-09-11T03:18:31.924Z,18.41
2022-09-11T03:20:58.403Z,18.67
2022-09-11T03:23:25.271Z,18.73
2022-09-11T03:25:51.663Z,18.90
2022-09-11T03:28:18.193Z,19.04
2022-09-11T03:30:44.613Z,19.01
2022-09-11T03:33:11.372Z,18.80
2022-09-11T03:35:38.424Z,18.66
2022-09-11T03:38:04.863Z,18.60
2022-09-11T03:40:31.269Z,18.34
2022-09-11T03:42:59.511Z,18.71
2022-09-11T03:45:26.032Z,18.73
2022-09-11T03:47:53.680Z,18.35
2022-09-11T03:50:20.120Z,17.70
2022-09-11T03:52:46.591Z,18.12
2022-09-11T03:55:13.067Z,18.37
2022-09-11T03:57:39.475Z,18.21
2022-09-11T04:00:06.835Z,17.94
2022-09-11T04:02:33.251Z,17.71
2022-09-11T04:04:59.657Z,18.35
2022-09-11T04:07:26.036Z,18.26
2022-09-11T04:09:52.430Z,17.74
2022-09-11T04:12:19.471Z,17.13
2022-09-11T04:14:45.899Z,17.38
2022-09-11T04:17:12.479Z,17.79
2022-09-11T04:19:38.853Z,17.23
2022-09-11T04:22:05.251Z,17.13
2022-09-11T04:24:31.943Z,17.88
2022-09-11T04:27:01.066Z,17.67
2022-09-11T04:29:28.495Z,18.08
2022-09-11T04:31:56.115Z,17.92
2022-09-11T04:34:22.554Z,18.17
2022-09-11T04:36:48.970Z,18.33
2022-09-11T04:39:15.437Z,18.21
2022-09-11T04:41:41.832Z,18.45
2022-09-11T04:44:08.333Z,18.48
2022-09-11T04:46:34.713Z,18.44
2022-09-11T04:49:02.213Z,18.38
2022-09-11T04:51:32.054Z,18.52
2022-09-11T04:53:59.756Z,18.54
2022-09-11T04:56:31.596Z,18.46
2022-09-11T04:59:05.579Z,18.31
2022-09-11T05:01:34.023Z,18.46
2022-09-11T05:04:01.598Z,18.44
2022-09-11T05:06:30.194Z,18.44
2022-09-11T05:09:01.358Z,18.02
2022-09-11T05:11:27.755Z,17.71
2022-09-11T05:13:54.143Z,17.29
2022-09-11T05:16:20.535Z,17.62
2022-09-11T05:18:52.461Z,17.89
2022-09-11T05:21:22.407Z,18.43
2022-09-11T05:23:51.354Z,17.74
2022-09-11T05:26:21.087Z,18.39
2022-09-11T05:28:47.768Z,18.51
2022-09-11T05:31:18.402Z,18.20
2022-09-11T05:33:45.959Z,18.29
2022-09-11T05:36:14.083Z,18.48
2022-09-11T05:38:40.974Z,18.68
2022-09-11T05:41:11.314Z,18.50
2022-09-11T05:43:39.236Z,18.80
2022-09-11T05:46:07.846Z,18.35
2022-09-11T05:48:36.854Z,18.49
2022-09-11T05:51:09.602Z,18.75
2022-09-11T05:53:37.836Z,18.38
2022-09-11T05:56:08.328Z,18.69
2022-09-11T05:58:34.851Z,18.73
2022-09-11T06:01:09.930Z,18.66
2022-09-11T06:03:37.089Z,18.67
2022-09-11T06:06:05.745Z,17.30
2022-09-11T06:08:34.425Z,18.26
2022-09-11T06:11:02.656Z,18.06
2022-09-11T06:13:31.436Z,17.40
2022-09-11T06:15:58.117Z,18.61
2022-09-11T06:18:24.544Z,18.49
2022-09-11T06:21:09.509Z,18.77
2022-09-11T06:23:37.229Z,18.75
2022-09-11T06:26:11.884Z,18.52
2022-09-11T06:28:40.912Z,18.70
2022-09-11T06:31:11.200Z,18.76
2022-09-11T06:33:39.879Z,19.01
2022-09-11T06:36:10.521Z,18.31
2022-09-11T06:38:38.222Z,18.18
2022-09-11T06:41:06.785Z,18.78
2022-09-11T06:43:33.519Z,18.76
2022-09-11T06:46:08.188Z,18.93
2022-09-11T06:48:34.902Z,19.15
2022-09-11T06:51:05.959Z,18.98
2022-09-11T06:53:33.025Z,18.39
2022-09-11T06:56:01.252Z,19.06
2022-09-11T06:58:29.237Z,19.00
2022-09-11T07:00:58.077Z,19.15
2022-09-11T07:03:24.572Z,19.09
2022-09-11T07:05:50.988Z,19.17
2022-09-11T07:08:19.773Z,19.21
2022-09-11T07:10:48.223Z,19.27
2022-09-11T07:13:15.041Z,19.20
2022-09-11T07:15:42.371Z,19.14
2022-09-11T07:18:08.905Z,18.99
2022-09-11T07:20:35.375Z,18.10
2022-09-11T07:23:01.769Z,17.90
2022-09-11T07:25:28.192Z,18.92
2022-09-11T07:27:54.936Z,18.20
2022-09-11T07:30:21.856Z,18.12
2022-09-11T07:32:49.815Z,18.58
2022-09-11T07:35:21.365Z,18.61
2022-09-11T07:37:50.827Z,18.47
2022-09-11T07:40:17.557Z,18.53
2022-09-11T07:42:44.022Z,19.11
2022-09-11T07:45:10.798Z,18.10
2022-09-11T07:47:38.475Z,18.36
2022-09-11T07:50:05.824Z,18.92
2022-09-11T07:52:32.657Z,18.94
2022-09-11T07:55:01.295Z,18.94
2022-09-11T07:57:30.091Z,18.76
2022-09-11T07:59:56.693Z,19.27
2022-09-11T08:02:23.189Z,18.83
2022-09-11T08:04:51.342Z,19.00
2022-09-11T08:07:17.838Z,18.44
2022-09-11T08:09:44.250Z,19.17
2022-09-11T08:12:11.230Z,19.23
2022-09-11T08:14:37.912Z,19.42
2022-09-11T08:17:04.527Z,19.44
2022-09-11T08:19:30.938Z,19.44
2022-09-11T08:22:00.307Z,19.62
2022-09-11T08:24:27.368Z,19.40
2022-09-11T08:26:53.789Z,19.33
2022-09-11T08:29:20.231Z,19.33
2022-09-11T08:31:46.707Z,19.04
2022-09-11T08:34:13.241Z,19.57
2022-09-11T08:36:39.725Z,19.40
2022-09-11T08:39:06.733Z,19.49
2022-09-11T08:41:57.136Z,19.52
2022-09-11T08:44:30.981Z,19.42
2022-09-11T08:47:06.540Z,19.39
2022-09-11T08:49:43.917Z,19.31
2022-09-11T08:52:15.594Z,19.02
2022-09-11T08:54:43.219Z,19.24
2022-09-11T08:57:18.482Z,18.58
2022-09-11T08:59:50.048Z,18.23
2022-09-11T09:02:47.286Z,19.49
2022-09-11T09:05:25.330Z,19.77
2022-09-11T09:08:01.556Z,19.79
2022-09-11T09:10:31.147Z,19.79
2022-09-11T09:12:57.480Z,19.76
2022-09-11T09:15:35.120Z,19.71
2022-09-11T09:18:13.461Z,19.95
2022-09-11T09:20:47.436Z,20.06
2022-09-11T09:23:20.994Z,20.19
2022-09-11T09:25:49.270Z,20.23
2022-09-11T09:28:34.834Z,19.75
2022-09-11T09:31:07.447Z,19.44
2022-09-11T09:33:38.826Z,19.35
2022-09-11T09:36:27.228Z,19.17
2022-09-11T09:38:54.066Z,19.63
2022-09-11T09:41:20.541Z,19.92
2022-09-11T09:44:19.679Z,19.54
2022-09-11T09:46:53.131Z,19.81
2022-09-11T09:49:30.607Z,20.44
2022-09-11T09:52:03.553Z,20.42
2022-09-11T09:54:36.251Z,20.26
2022-09-11T09:57:06.496Z,20.02
2022-09-11T09:59:47.934Z,19.36
2022-09-11T10:02:41.369Z,20.37
2022-09-11T10:05:31.307Z,20.40
2022-09-11T10:07:59.351Z,20.89
2022-09-11T10:10:34.843Z,21.27
2022-09-11T10:13:18.588Z,21.23
2022-09-11T10:15:49.139Z,20.19
2022-09-11T10:18:34.507Z,20.94
2022-09-11T10:21:12.996Z,20.84
2022-09-11T10:23:58.645Z,20.51
2022-09-11T10:26:50.875Z,20.63
2022-09-11T10:29:30.138Z,21.76
2022-09-11T10:31:59.325Z,22.25
2022-09-11T10:34:28.197Z,21.53
2022-09-11T10:37:14.825Z,21.84
2022-09-11T10:39:44.189Z,21.33
2022-09-11T10:42:16.776Z,21.78
2022-09-11T10:44:45.281Z,21.95
2022-09-11T10:47:20.614Z,22.55
2022-09-11T10:49:47.763Z,21.88
2022-09-11T10:52:14.109Z,22.37
2022-09-11T10:55:06.086Z,22.36
2022-09-11T10:57:45.750Z,22.67
2022-09-11T11:00:15.990Z,21.22
2022-09-11T11:03:00.783Z,22.62
2022-09-11T11:05:34.884Z,22.95
2022-09-11T11:08:04.219Z,22.79
2022-09-11T11:10:36.676Z,21.80
2022-09-11T11:13:33.996Z,22.51
2022-09-11T11:16:21.207Z,22.78
2022-09-11T11:18:57.370Z,22.15
2022-09-11T11:21:45.107Z,22.36
2022-09-11T11:24:29.698Z,22.08
2022-09-11T11:27:08.192Z,22.18
2022-09-11T11:29:57.440Z,22.49
2022-09-11T11:32:30.318Z,22.41
2022-09-11T11:35:20.915Z,22.70
2022-09-11T11:37:49.994Z,21.71
2022-09-11T11:40:32.012Z,22.35
2022-09-11T11:43:03.455Z,22.78
2022-09-11T11:45:37.340Z,22.31
2022-09-11T11:48:16.025Z,22.41
2022-09-11T11:50:47.330Z,23.17
2022-09-11T11:53:31.285Z,22.71
2022-09-11T11:56:04.704Z,23.22
2022-09-11T11:58:52.351Z,23.57
2022-09-11T12:01:34.657Z,23.16
2022-09-11T12:04:12.322Z,23.24
2022-09-11T12:06:38.888Z,23.43
2022-09-11T12:09:08.352Z,22.71
2022-09-11T12:11:35.744Z,23.20
2022-09-11T12:14:03.084Z,22.04
2022-09-11T12:16:34.650Z,23.32
2022-09-11T12:19:01.291Z,23.43
2022-09-11T12:21:31.431Z,23.72
2022-09-11T12:23:57.776Z,23.33
2022-09-11T12:26:25.796Z,23.38
2022-09-11T12:29:14.236Z,23.49
2022-09-11T12:31:49.827Z,23.15
2022-09-11T12:34:24.895Z,23.61
2022-09-11T12:37:03.535Z,23.67
2022-09-11T12:39:34.747Z,23.18
2022-09-11T12:42:39.967Z,22.71
2022-09-11T12:45:30.520Z,22.85
2022-09-11T12:48:04.855Z,22.21
2022-09-11T12:50:31.877Z,22.62
2022-09-11T12:53:02.335Z,22.44
2022-09-11T12:55:34.610Z,23.25
2022-09-11T12:58:06.645Z,23.67
2022-09-11T13:00:38.326Z,23.79
2022-09-11T13:03:08.383Z,23.92
2022-09-11T13:05:38.434Z,22.88
2022-09-11T13:08:16.142Z,23.00
2022-09-11T13:10:42.979Z,22.71
2022-09-11T13:13:35.676Z,22.83
2022-09-11T13:16:17.445Z,22.97
2022-09-11T13:18:44.017Z,23.50
2022-09-11T13:21:10.574Z,23.00
2022-09-11T13:23:37.844Z,23.67
2022-09-11T13:26:08.009Z,23.64
2022-09-11T13:28:45.605Z,23.26
2022-09-11T13:31:19.984Z,23.46
2022-09-11T13:33:51.636Z,23.59
2022-09-11T13:36:21.961Z,23.83
2022-09-11T13:38:56.478Z,23.12
2022-09-11T13:41:33.013Z,23.38
2022-09-11T13:44:01.472Z,22.73
2022-09-11T13:46:31.212Z,23.07
2022-09-11T13:49:18.589Z,23.63
2022-09-11T13:51:47.240Z,23.79
2022-09-11T13:54:49.262Z,23.85
2022-09-11T13:57:28.111Z,23.91
2022-09-11T13:59:58.672Z,23.30
2022-09-11T14:02:45.665Z,23.51
2022-09-11T14:05:27.038Z,23.16
2022-09-11T14:08:02.378Z,23.36
2022-09-11T14:10:32.255Z,23.54
2022-09-11T14:13:09.214Z,23.78
2022-09-11T14:15:43.154Z,23.94
2022-09-11T14:18:21.050Z,23.50
2022-09-11T14:20:47.608Z,22.75
2022-09-11T14:23:21.609Z,22.51
2022-09-11T14:26:15.903Z,23.01
2022-09-11T14:28:46.661Z,23.62
2022-09-11T14:31:26.908Z,23.36
2022-09-11T14:34:22.962Z,23.89
2022-09-11T14:37:07.862Z,23.38
2022-09-11T14:39:42.048Z,23.29
2022-09-11T14:42:13.235Z,23.44
2022-09-11T14:44:41.509Z,23.83
2022-09-11T14:47:28.848Z,23.72
2022-09-11T14:49:57.411Z,23.32
2022-09-11T14:52:28.680Z,23.52
2022-09-11T14:54:56.512Z,23.87
2022-09-11T14:57:32.507Z,23.68
2022-09-11T15:00:01.999Z,24.14
2022-09-11T15:02:29.218Z,23.47
2022-09-11T15:04:57.456Z,23.88
2022-09-11T15:07:25.030Z,24.02
2022-09-11T15:09:54.949Z,23.56
2022-09-11T15:12:22.614Z,23.58
2022-09-11T15:14:58.436Z,23.91
2022-09-11T15:17:30.442Z,23.64
2022-09-11T15:20:00.242Z,23.11
2022-09-11T15:22:27.133Z,23.57
2022-09-11T15:24:53.772Z,23.83
2022-09-11T15:27:20.226Z,22.53
2022-09-11T15:29:46.641Z,23.67
2022-09-11T15:32:14.302Z,23.79
2022-09-11T15:34:42.330Z,23.93
2022-09-11T15:37:08.918Z,23.89
2022-09-11T15:39:35.491Z,23.40
2022-09-11T15:42:02.022Z,23.57
2022-09-11T15:44:29.364Z,23.48
2022-09-11T15:46:58.432Z,23.38
2022-09-11T15:49:28.019Z,23.14
2022-09-11T15:51:54.899Z,23.24
2022-09-11T15:54:23.341Z,23.02
2022-09-11T15:56:51.020Z,23.59
2022-09-11T15:59:17.673Z,23.58
2022-09-11T16:01:45.035Z,23.68
2022-09-11T16:04:15.035Z,22.69
2022-09-11T16:06:45.134Z,23.49
2022-09-11T16:09:14.546Z,23.57
2022-09-11T16:11:40.989Z,21.87
2022-09-11T16:14:08.802Z,22.96
2022-09-11T16:16:35.458Z,23.33
2022-09-11T16:19:01.991Z,23.18
2022-09-11T16:21:28.877Z,23.31
2022-09-11T16:24:00.621Z,23.63
2022-09-11T16:26:28.951Z,23.59
2022-09-11T16:28:55.438Z,22.96
2022-09-11T16:31:21.939Z,22.99
2022-09-11T16:33:49.920Z,23.32
2022-09-11T16:36:18.804Z,23.32
2022-09-11T16:38:46.228Z,23.17
2022-09-11T16:41:20.077Z,23.11
2022-09-11T16:43:52.249Z,23.25
2022-09-11T16:46:21.114Z,23.54
2022-09-11T16:48:51.886Z,23.35
2022-09-11T16:51:20.982Z,23.54
2022-09-11T16:53:47.897Z,22.82
2022-09-11T16:56:17.260Z,23.52
2022-09-11T16:58:44.301Z,23.45
2022-09-11T17:01:14.767Z,23.04
2022-09-11T17:03:43.485Z,23.35
2022-09-11T17:06:10.848Z,23.42
2022-09-11T17:08:39.107Z,23.37
2022-09-11T17:11:09.650Z,23.39
2022-09-11T17:13:36.531Z,23.33
2022-09-11T17:16:23.855Z,23.31
2022-09-11T17:18:56.620Z,23.26
2022-09-11T17:21:24.766Z,23.17
2022-09-11T17:23:52.946Z,23.20
2022-09-11T17:26:19.945Z,23.12
2022-09-11T17:28:48.723Z,23.03
2022-09-11T17:31:16.592Z,22.85
2022-09-11T17:33:45.305Z,22.40
2022-09-11T17:36:14.669Z,22.26
2022-09-11T17:38:41.283Z,22.10
2022-09-11T17:41:08.918Z,22.38
2022-09-11T17:43:36.753Z,22.41
2022-09-11T17:46:06.333Z,22.27
2022-09-11T17:48:32.910Z,22.43
2022-09-11T17:51:01.336Z,22.02
2022-09-11T17:53:33.401Z,22.29
2022-09-11T17:56:04.514Z,22.29
2022-09-11T17:58:30.959Z,22.20
2022-09-11T18:01:00.556Z,22.21
2022-09-11T18:03:28.758Z,22.26
2022-09-11T18:05:55.827Z,22.19
2022-09-11T18:08:22.418Z,22.13
2022-09-11T18:10:51.201Z,22.07
2022-09-11T18:13:17.663Z,22.11
2022-09-11T18:15:44.103Z,21.99
2022-09-11T18:18:10.496Z,21.94
2022-09-11T18:20:36.922Z,21.89
2022-09-11T18:23:03.332Z,21.82
2022-09-11T18:25:30.084Z,21.68
2022-09-11T18:27:56.493Z,21.55
2022-09-11T18:30:22.914Z,21.36
2022-09-11T18:32:49.978Z,21.44
2022-09-11T18:35:17.344Z,21.47
2022-09-11T18:37:43.770Z,20.90
2022-09-11T18:40:10.220Z,21.14
2022-09-11T18:42:36.661Z,21.06
2022-09-11T18:45:03.262Z,20.90
2022-09-11T18:47:30.544Z,21.24
2022-09-11T18:49:59.599Z,21.52
2022-09-11T18:52:26.473Z,21.62
2022-09-11T18:54:52.882Z,21.59
2022-09-11T18:57:19.350Z,21.67
2022-09-11T18:59:45.698Z,21.88
2022-09-11T19:02:12.449Z,21.82
2022-09-11T19:04:39.160Z,21.98
2022-09-11T19:07:05.811Z,22.05
2022-09-11T19:09:32.234Z,22.11
2022-09-11T19:12:00.238Z,21.95
2022-09-11T19:14:27.666Z,21.98
2022-09-11T19:16:54.163Z,22.15
2022-09-11T19:19:20.666Z,22.03
2022-09-11T19:21:47.703Z,22.03
2022-09-11T19:24:14.170Z,21.94
2022-09-11T19:26:43.465Z,21.81
2022-09-11T19:29:10.951Z,21.91
2022-09-11T19:31:39.086Z,22.04
2022-09-11T19:34:08.231Z,21.85
2022-09-11T19:36:35.952Z,21.94
2022-09-11T19:39:03.535Z,22.01
2022-09-11T19:41:33.176Z,22.11
2022-09-11T19:44:02.149Z,22.08
2022-09-11T19:46:30.451Z,22.20
2022-09-11T19:49:00.729Z,22.20
2022-09-11T19:51:30.189Z,22.19
2022-09-11T19:54:00.352Z,22.16
2022-09-11T19:56:27.974Z,22.06
2022-09-11T19:58:56.048Z,22.17
2022-09-11T20:01:24.353Z,22.14
2022-09-11T20:03:55.659Z,21.69
2022-09-11T20:06:26.038Z,21.98
2022-09-11T20:09:07.967Z,21.93
2022-09-11T20:11:40.229Z,21.78
2022-09-11T20:14:06.835Z,21.87
2022-09-11T20:16:33.644Z,21.91
2022-09-11T20:19:09.249Z,21.82
2022-09-11T20:21:36.152Z,21.79
2022-09-11T20:24:04.756Z,21.90
2022-09-11T20:26:32.352Z,21.76
2022-09-11T20:29:01.124Z,21.83
2022-09-11T20:31:31.636Z,21.85
2022-09-11T20:34:00.484Z,21.76
2022-09-11T20:36:29.906Z,21.59
2022-09-11T20:39:00.882Z,21.54
2022-09-11T20:41:29.992Z,21.34
2022-09-11T20:43:58.041Z,21.16
2022-09-11T20:46:24.586Z,20.95
2022-09-11T20:48:52.876Z,20.67
2022-09-11T20:51:21.771Z,20.76
2022-09-11T20:53:48.966Z,20.68
2022-09-11T20:56:18.114Z,20.56
2022-09-11T20:58:44.847Z,20.43
2022-09-11T21:01:14.374Z,20.38
2022-09-11T21:03:49.682Z,19.72
2022-09-11T21:06:16.204Z,19.44
2022-09-11T21:08:44.255Z,19.95
2022-09-11T21:11:12.042Z,20.05
2022-09-11T21:13:41.064Z,19.99
2022-09-11T21:16:10.128Z,20.00
2022-09-11T21:18:38.580Z,19.93
2022-09-11T21:21:06.049Z,19.94
2022-09-11T21:23:32.591Z,19.91
2022-09-11T21:25:59.092Z,19.85
2022-09-11T21:28:25.512Z,19.84
2022-09-11T21:30:52.162Z,19.78
2022-09-11T21:33:18.919Z,19.76
2022-09-11T21:35:52.302Z,19.78
2022-09-11T21:38:20.836Z,19.79
2022-09-11T21:40:47.761Z,19.73
2022-09-11T21:43:14.296Z,19.64
2022-09-11T21:45:41.037Z,19.69
2022-09-11T21:48:09.062Z,19.66
2022-09-11T21:50:37.287Z,19.58
2022-09-11T21:53:04.982Z,19.57
2022-09-11T21:55:31.508Z,19.50
2022-09-11T21:57:59.245Z,19.56
2022-09-11T22:00:25.650Z,19.54
2022-09-11T22:02:52.062Z,19.41
2022-09-11T22:05:18.469Z,19.42
2022-09-11T22:07:44.888Z,19.39
2022-09-11T22:10:11.276Z,19.34
2022-09-11T22:12:37.701Z,19.29
2022-09-11T22:15:04.335Z,19.29
2022-09-11T22:17:30.782Z,19.25
2022-09-11T22:19:57.182Z,19.18
2022-09-11T22:22:23.790Z,19.20
2022-09-11T22:24:50.223Z,19.11
2022-09-11T22:27:16.589Z,19.16
2022-09-11T22:29:46.932Z,19.11
2022-09-11T22:32:13.563Z,19.08
2022-09-11T22:34:40.063Z,19.05
2022-09-11T22:37:06.482Z,19.03
2022-09-11T22:39:32.990Z,18.97
2022-09-11T22:41:59.658Z,18.92
2022-09-11T22:44:26.513Z,18.89
2022-09-11T22:46:53.333Z,18.89
2022-09-11T22:49:19.754Z,18.84
2022-09-11T22:51:46.154Z,18.85
2022-09-11T22:54:13.726Z,18.79
2022-09-11T22:56:40.386Z,18.78
2022-09-11T22:59:07.205Z,18.69
2022-09-11T23:01:33.939Z,18.69
2022-09-11T23:04:00.342Z,18.75
2022-09-11T23:06:45.278Z,18.61
2022-09-11T23:09:16.575Z,18.56
2022-09-11T23:11:45.101Z,18.56
2022-09-11T23:14:14.464Z,18.56
2022-09-11T23:16:42.107Z,18.60
2022-09-11T23:19:12.204Z,18.54
2022-09-11T23:21:38.653Z,18.49
2022-09-11T23:24:10.369Z,18.51
2022-09-11T23:26:36.804Z,18.46
2022-09-11T23:29:03.288Z,18.47
2022-09-11T23:31:32.153Z,18.41
2022-09-11T23:34:01.418Z,18.46
2022-09-11T23:36:28.912Z,18.44
2022-09-11T23:38:55.699Z,18.35
2022-09-11T23:41:22.907Z,18.36
2022-09-11T23:43:49.446Z,18.35
2022-09-11T23:46:16.353Z,18.34
2022-09-11T23:48:43.631Z,18.31
2022-09-11T23:51:10.973Z,18.30
2022-09-11T23:53:44.776Z,18.33
2022-09-11T23:56:14.206Z,18.24
2022-09-11T23:58:40.720Z,18.24
